Time;durP1;ratioP1;P1;durP2;ratioP2;P2;SDS_P1;SDS_P2;PMS_P1;PMS_P2;Temp;Humidity;BMP_temperature;BMP_pressure;BME280_temperature;BME280_humidity;BME280_pressure;Samples;Min_cycle;Max_cycle;Signal;HPM_P1;HPM_P2
2024/01/02 00:02:16;;;;;;;;;;;5.10;99.90;;;;;;5104188;28;19972;-69
2024/01/02 00:04:44;;;;;;;;;;;5.00;99.90;;;;;;5103748;28;19920;-70
2024/01/02 00:07:11;;;;;;;;;;;5.10;99.90;;;;;;5104020;28;20268;-70
2024/01/02 00:09:37;;;;;;;;;;;5.10;99.90;;;;;;5103987;28;19920;-71
2024/01/02 00:12:05;;;;;;;;;;;5.10;99.90;;;;;;5103794;28;20457;-70
2024/01/02 00:14:32;;;;;;;;;;;5.00;99.90;;;;;;5103359;28;19920;-70
2024/01/02 00:16:58;;;;;;;;;;;5.00;99.90;;;;;;5104259;28;20025;-70
2024/01/02 00:19:25;;;;;;;;;;;5.00;99.90;;;;;;5101675;28;19920;-70
2024/01/02 00:21:53;;;;;;;;;;;4.90;99.90;;;;;;5084852;28;20222;-69
2024/01/02 00:24:20;;;;;;;;;;;4.90;99.90;;;;;;5083946;28;19956;-70
2024/01/02 00:26:46;;;;;;;;;;;4.80;99.90;;;;;;5094906;28;19920;-70
2024/01/02 00:29:13;;;;;;;;;;;4.80;99.90;;;;;;5103451;28;19955;-70
2024/01/02 00:31:40;;;;;;;;;;;4.80;99.90;;;;;;5103760;28;19921;-70
2024/01/02 00:34:07;;;;;;;;;;;4.90;99.90;;;;;;5103254;28;19920;-70
2024/01/02 00:36:33;;;;;;;;;;;4.90;99.90;;;;;;5103398;28;19955;-70
2024/01/02 00:39:02;;;;;;;;;;;4.90;99.90;;;;;;5101758;28;19996;-70
2024/01/02 00:41:28;;;;;;;;;;;4.90;99.90;;;;;;5102897;28;19969;-70
2024/01/02 00:43:55;;;;;;;;;;;4.90;99.90;;;;;;5101925;28;19927;-71
2024/01/02 00:46:22;;;;;;;;;;;4.90;99.90;;;;;;5098914;28;19920;-70
2024/01/02 00:48:48;;;;;;;;;;;5.00;99.90;;;;;;5103055;28;19927;-71
2024/01/02 00:51:15;;;;;;;;;;;5.00;99.90;;;;;;5103663;28;19974;-70
2024/01/02 00:53:41;;;;;;;;;;;5.00;99.90;;;;;;5102983;28;19979;-70
2024/01/02 00:56:09;;;;;;;;;;;5.00;99.90;;;;;;5103458;28;19926;-70
2024/01/02 00:58:36;;;;;;;;;;;5.00;99.90;;;;;;5103221;28;20168;-70
2024/01/02 01:01:03;;;;;;;;;;;5.00;99.90;;;;;;5103180;28;19920;-70
2024/01/02 01:03:29;;;;;;;;;;;5.00;99.90;;;;;;5102869;28;20148;-71
2024/01/02 01:05:56;;;;;;;;;;;5.00;99.90;;;;;;5103571;28;19952;-70
2024/01/02 01:08:23;;;;;;;;;;;5.10;99.90;;;;;;5103449;28;19983;-70
2024/01/02 01:10:49;;;;;;;;;;;5.10;99.90;;;;;;5103215;28;20218;-70
2024/01/02 01:13:17;;;;;;;;;;;5.10;99.90;;;;;;5104812;28;19979;-69
2024/01/02 01:15:44;;;;;;;;;;;5.00;99.90;;;;;;5107509;28;19951;-74
2024/01/02 01:18:10;;;;;;;;;;;5.00;99.90;;;;;;5107074;28;19930;-71
2024/01/02 01:20:37;;;;;;;;;;;5.00;99.90;;;;;;5107390;28;20198;-71
2024/01/02 01:23:04;;;;;;;;;;;5.00;99.90;;;;;;5106841;28;19977;-70
2024/01/02 01:25:30;;;;;;;;;;;5.00;99.90;;;;;;5107328;28;19984;-70
2024/01/02 01:27:58;;;;;;;;;;;5.00;99.90;;;;;;5106719;28;19959;-71
2024/01/02 01:30:26;;;;;;;;;;;5.00;99.90;;;;;;5107251;28;19977;-70
2024/01/02 01:32:53;;;;;;;;;;;5.00;99.90;;;;;;5106740;28;19983;-70
2024/01/02 01:35:19;;;;;;;;;;;5.00;99.90;;;;;;5106304;28;19927;-70
2024/01/02 01:37:46;;;;;;;;;;;5.10;99.90;;;;;;5106882;28;19994;-69
2024/01/02 01:40:13;;;;;;;;;;;5.10;99.90;;;;;;5099517;28;20106;-71
2024/01/02 01:42:39;;;;;;;;;;;5.10;99.90;;;;;;5087642;28;19983;-70
2024/01/02 01:45:06;;;;;;;;;;;5.10;99.90;;;;;;5092486;28;19920;-70
2024/01/02 01:47:34;;;;;;;;;;;5.20;99.90;;;;;;5105807;28;19927;-70
2024/01/02 01:50:01;;;;;;;;;;;5.20;99.90;;;;;;5106218;28;20164;-70
2024/01/02 01:52:32;;;;;;;;;;;5.20;99.90;;;;;;5106534;28;20234;-69
2024/01/02 01:54:58;;;;;;;;;;;5.20;99.90;;;;;;5098376;28;19961;-69
2024/01/02 01:57:25;;;;;;;;;;;5.30;99.90;;;;;;5106593;28;19920;-70
2024/01/02 01:59:52;;;;;;;;;;;5.30;99.90;;;;;;5106251;28;20000;-70
2024/01/02 02:02:19;;;;;;;;;;;5.30;99.90;;;;;;5106466;28;20260;-70
2024/01/02 02:04:47;;;;;;;;;;;5.30;99.90;;;;;;5105652;28;19951;-71
2024/01/02 02:07:14;;;;;;;;;;;5.20;99.90;;;;;;5106077;28;19962;-71
2024/01/02 02:09:41;;;;;;;;;;;5.20;99.90;;;;;;5106278;28;19974;-70
2024/01/02 02:12:08;;;;;;;;;;;5.10;99.90;;;;;;5105992;28;19983;-70
2024/01/02 02:14:35;;;;;;;;;;;5.10;99.90;;;;;;5105628;28;19963;-71
2024/01/02 02:17:01;;;;;;;;;;;5.00;99.90;;;;;;5106328;28;19991;-71
2024/01/02 02:19:28;;;;;;;;;;;5.00;99.90;;;;;;5106002;28;19920;-70
2024/01/02 02:21:56;;;;;;;;;;;5.00;99.90;;;;;;5105678;28;19984;-70
2024/01/02 02:24:24;;;;;;;;;;;5.00;99.90;;;;;;5104076;28;20013;-70
2024/01/02 02:26:52;;;;;;;;;;;5.00;99.90;;;;;;5106029;28;19988;-70
2024/01/02 02:29:18;;;;;;;;;;;5.00;99.90;;;;;;5105979;28;19955;-70
2024/01/02 02:31:45;;;;;;;;;;;5.00;99.90;;;;;;5105930;28;19979;-69
2024/01/02 02:34:11;;;;;;;;;;;5.00;99.90;;;;;;5105512;28;19979;-69
2024/01/02 02:36:38;;;;;;;;;;;5.00;99.90;;;;;;5105557;28;19990;-70
2024/01/02 02:39:05;;;;;;;;;;;5.00;99.90;;;;;;5105480;28;19926;-70
2024/01/02 02:41:32;;;;;;;;;;;5.00;99.90;;;;;;5105761;28;20121;-70
2024/01/02 02:43:59;;;;;;;;;;;5.00;99.90;;;;;;5105311;28;19979;-70
2024/01/02 02:46:26;;;;;;;;;;;5.00;99.90;;;;;;5105937;28;19983;-70
2024/01/02 02:48:52;;;;;;;;;;;5.00;99.90;;;;;;5105268;28;20241;-70
2024/01/02 02:51:19;;;;;;;;;;;5.00;99.90;;;;;;5105655;28;19983;-70
2024/01/02 02:53:45;;;;;;;;;;;5.00;99.90;;;;;;5104609;28;20209;-70
2024/01/02 02:56:14;;;;;;;;;;;5.00;99.90;;;;;;5105644;28;19988;-70
2024/01/02 02:58:42;;;;;;;;;;;5.00;99.90;;;;;;5105176;28;19991;-70
2024/01/02 03:01:09;;;;;;;;;;;5.00;99.90;;;;;;5105495;28;19966;-70
2024/01/02 03:03:36;;;;;;;;;;;4.90;99.90;;;;;;5104273;28;20274;-71
2024/01/02 03:06:02;;;;;;;;;;;4.90;99.90;;;;;;5105120;28;19939;-70
2024/01/02 03:08:29;;;;;;;;;;;5.00;99.90;;;;;;5104699;28;19987;-70
2024/01/02 03:10:59;;;;;;;;;;;5.00;99.90;;;;;;5105270;28;19920;-70
2024/01/02 03:13:25;;;;;;;;;;;5.00;99.90;;;;;;5104523;28;19961;-70
2024/01/02 03:15:53;;;;;;;;;;;5.00;99.90;;;;;;5105080;28;20153;-70
2024/01/02 03:18:20;;;;;;;;;;;4.90;99.90;;;;;;5104836;28;19962;-70
2024/01/02 03:20:47;;;;;;;;;;;4.90;99.90;;;;;;5105006;28;19983;-71
2024/01/02 03:23:13;;;;;;;;;;;4.90;99.90;;;;;;5104423;28;19955;-70
2024/01/02 03:25:40;;;;;;;;;;;5.00;99.90;;;;;;5104660;28;19995;-70
2024/01/02 03:28:07;;;;;;;;;;;5.00;99.90;;;;;;5104680;28;19963;-70
2024/01/02 03:30:34;;;;;;;;;;;5.00;99.90;;;;;;5104772;28;19920;-70
2024/01/02 03:33:02;;;;;;;;;;;5.00;99.90;;;;;;5104049;28;19983;-70
2024/01/02 03:35:29;;;;;;;;;;;4.90;99.90;;;;;;5104614;28;19926;-70
2024/01/02 03:37:55;;;;;;;;;;;4.90;99.90;;;;;;5104172;28;19920;-72
2024/01/02 03:40:22;;;;;;;;;;;4.90;99.90;;;;;;5104673;28;19920;-71
2024/01/02 03:42:49;;;;;;;;;;;4.90;99.90;;;;;;5104290;28;21218;-70
2024/01/02 03:45:15;;;;;;;;;;;4.90;99.90;;;;;;5099241;28;19962;-70
2024/01/02 03:47:42;;;;;;;;;;;4.90;99.90;;;;;;5104549;28;20091;-71
2024/01/02 03:50:10;;;;;;;;;;;4.90;99.90;;;;;;5104170;28;20229;-71
2024/01/02 03:52:37;;;;;;;;;;;4.90;99.90;;;;;;5104341;28;19962;-70
2024/01/02 03:55:04;;;;;;;;;;;4.90;99.90;;;;;;5098440;28;20210;-70
2024/01/02 03:57:33;;;;;;;;;;;4.90;99.90;;;;;;5103850;28;19979;-72
2024/01/02 04:00:00;;;;;;;;;;;4.80;99.90;;;;;;5103953;28;19920;-71
2024/01/02 04:02:27;;;;;;;;;;;4.80;99.90;;;;;;5104364;28;19962;-70
2024/01/02 04:04:53;;;;;;;;;;;4.90;99.90;;;;;;5102910;28;20210;-70
2024/01/02 04:07:22;;;;;;;;;;;4.90;99.90;;;;;;5104178;28;19956;-70
2024/01/02 04:09:48;;;;;;;;;;;4.80;99.90;;;;;;5104042;28;19920;-71
2024/01/02 04:12:15;;;;;;;;;;;4.80;99.90;;;;;;5104143;28;19958;-70
2024/01/02 04:14:42;;;;;;;;;;;4.80;99.90;;;;;;5103325;28;19976;-70
2024/01/02 04:17:08;;;;;;;;;;;4.80;99.90;;;;;;5104068;28;19979;-70
2024/01/02 04:19:35;;;;;;;;;;;4.70;99.90;;;;;;5103390;28;19920;-70
2024/01/02 04:22:01;;;;;;;;;;;4.70;99.90;;;;;;5104005;28;19982;-70
2024/01/02 04:24:30;;;;;;;;;;;4.70;99.90;;;;;;5103287;28;19924;-70
2024/01/02 04:26:56;;;;;;;;;;;4.60;99.90;;;;;;5103986;28;19975;-70
2024/01/02 04:29:23;;;;;;;;;;;4.70;99.90;;;;;;5103560;28;19920;-70
2024/01/02 04:31:49;;;;;;;;;;;4.70;99.90;;;;;;5103528;28;19928;-70
2024/01/02 04:34:16;;;;;;;;;;;4.60;99.90;;;;;;5103048;28;20218;-70
2024/01/02 04:36:43;;;;;;;;;;;4.60;99.90;;;;;;5103800;28;19926;-70
2024/01/02 04:39:10;;;;;;;;;;;4.70;99.90;;;;;;5103329;28;19963;-70
2024/01/02 04:41:38;;;;;;;;;;;4.60;99.90;;;;;;5103789;28;19983;-70
2024/01/02 04:44:04;;;;;;;;;;;4.60;99.90;;;;;;5103384;28;19952;-69
2024/01/02 04:46:31;;;;;;;;;;;4.60;99.90;;;;;;5103244;28;19956;-70
2024/01/02 04:48:58;;;;;;;;;;;4.50;99.90;;;;;;5095268;28;19920;-70
2024/01/02 04:51:24;;;;;;;;;;;4.60;99.90;;;;;;5103627;28;19926;-69
2024/01/02 04:53:51;;;;;;;;;;;4.50;99.90;;;;;;5098718;28;19928;-70
2024/01/02 04:56:17;;;;;;;;;;;4.50;99.90;;;;;;5098470;28;19951;-69
2024/01/02 04:58:46;;;;;;;;;;;4.50;99.90;;;;;;5102373;28;19951;-69
2024/01/02 05:01:13;;;;;;;;;;;4.50;99.90;;;;;;5102711;28;19926;-70
2024/01/02 05:03:39;;;;;;;;;;;4.50;99.90;;;;;;5102629;28;20285;-70
2024/01/02 05:06:06;;;;;;;;;;;4.50;99.90;;;;;;5103483;28;19920;-70
2024/01/02 05:08:34;;;;;;;;;;;4.50;99.90;;;;;;5103207;28;19921;-70
2024/01/02 05:11:00;;;;;;;;;;;4.50;99.90;;;;;;5103540;28;19924;-69
2024/01/02 05:13:27;;;;;;;;;;;4.50;99.90;;;;;;5102816;28;20162;-70
2024/01/02 05:15:55;;;;;;;;;;;4.50;99.90;;;;;;5103599;28;19920;-69
2024/01/02 05:18:21;;;;;;;;;;;4.50;99.90;;;;;;5103212;28;19928;-70
2024/01/02 05:20:48;;;;;;;;;;;4.50;99.90;;;;;;5103151;28;19990;-70
2024/01/02 05:23:15;;;;;;;;;;;4.50;99.90;;;;;;5102918;28;19920;-69
2024/01/02 05:25:42;;;;;;;;;;;4.50;99.90;;;;;;5102951;28;20240;-70
2024/01/02 05:28:08;;;;;;;;;;;4.40;99.90;;;;;;5103275;28;20087;-69
2024/01/02 05:30:35;;;;;;;;;;;4.40;99.90;;;;;;5103219;28;19926;-70
2024/01/02 05:33:03;;;;;;;;;;;4.40;99.90;;;;;;5102791;28;20117;-70
2024/01/02 05:35:30;;;;;;;;;;;4.50;99.90;;;;;;5101015;28;19920;-70
2024/01/02 05:37:57;;;;;;;;;;;4.40;99.90;;;;;;5108951;28;19975;-70
2024/01/02 05:40:23;;;;;;;;;;;4.40;99.90;;;;;;5102985;28;19920;-70
2024/01/02 05:42:50;;;;;;;;;;;4.40;99.90;;;;;;5102804;28;20230;-71
2024/01/02 05:45:16;;;;;;;;;;;4.40;99.90;;;;;;5102594;28;19956;-70
2024/01/02 05:47:44;;;;;;;;;;;4.40;99.90;;;;;;5102721;28;19956;-70
2024/01/02 05:50:12;;;;;;;;;;;4.40;99.90;;;;;;5102785;28;20228;-70
2024/01/02 05:52:39;;;;;;;;;;;4.40;99.90;;;;;;5103024;28;19952;-70
2024/01/02 05:55:05;;;;;;;;;;;4.40;99.90;;;;;;5089839;28;19970;-69
2024/01/02 05:57:32;;;;;;;;;;;4.40;99.90;;;;;;5083964;28;19987;-70
2024/01/02 05:59:58;;;;;;;;;;;4.30;99.90;;;;;;5094387;28;19956;-70
2024/01/02 06:02:25;;;;;;;;;;;4.30;99.90;;;;;;5087079;28;19920;-70
2024/01/02 06:04:52;;;;;;;;;;;4.30;99.90;;;;;;5105809;28;19924;-70
2024/01/02 06:07:20;;;;;;;;;;;4.30;99.90;;;;;;5106362;28;19920;-70
2024/01/02 06:09:46;;;;;;;;;;;4.30;99.90;;;;;;5106341;28;19983;-69
2024/01/02 06:12:13;;;;;;;;;;;4.30;99.90;;;;;;5106120;28;19986;-70
2024/01/02 06:14:40;;;;;;;;;;;4.30;99.90;;;;;;5105792;28;20174;-70
2024/01/02 06:17:06;;;;;;;;;;;4.20;99.90;;;;;;5106444;28;19920;-70
2024/01/02 06:19:33;;;;;;;;;;;4.20;99.90;;;;;;5105837;28;20178;-69
2024/01/02 06:21:59;;;;;;;;;;;4.20;99.90;;;;;;5105102;28;19952;-74
2024/01/02 06:24:27;;;;;;;;;;;4.30;99.90;;;;;;5105698;28;20109;-69
2024/01/02 06:26:54;;;;;;;;;;;4.30;99.90;;;;;;5105758;28;19948;-69
2024/01/02 06:29:20;;;;;;;;;;;4.30;99.90;;;;;;5105652;28;19926;-69
2024/01/02 06:31:47;;;;;;;;;;;4.30;99.90;;;;;;5105187;28;19927;-69
2024/01/02 06:34:14;;;;;;;;;;;4.30;99.90;;;;;;5105526;28;19924;-69
2024/01/02 06:36:40;;;;;;;;;;;4.30;99.90;;;;;;5105707;28;20265;-69
2024/01/02 06:39:07;;;;;;;;;;;4.30;99.90;;;;;;5105688;28;19952;-68
2024/01/02 06:41:35;;;;;;;;;;;4.30;99.90;;;;;;5105869;28;19920;-69
2024/01/02 06:44:01;;;;;;;;;;;4.30;99.90;;;;;;5105321;28;20173;-69
2024/01/02 06:46:28;;;;;;;;;;;4.30;99.90;;;;;;5105788;28;20195;-69
2024/01/02 06:48:55;;;;;;;;;;;4.30;99.90;;;;;;5105129;28;19983;-69
2024/01/02 06:51:21;;;;;;;;;;;4.30;99.90;;;;;;5105658;28;19920;-69
2024/01/02 06:53:48;;;;;;;;;;;4.40;99.90;;;;;;5103341;28;19951;-68
2024/01/02 06:56:14;;;;;;;;;;;4.40;99.90;;;;;;5104822;28;19986;-68
2024/01/02 06:58:44;;;;;;;;;;;4.40;99.90;;;;;;5104056;28;20190;-68
2024/01/02 07:01:13;;;;;;;;;;;4.40;99.90;;;;;;5104530;28;19995;-68
2024/01/02 07:03:40;;;;;;;;;;;4.40;99.90;;;;;;5103518;28;19959;-69
2024/01/02 07:06:07;;;;;;;;;;;4.40;99.90;;;;;;5105068;28;19987;-69
2024/01/02 07:08:33;;;;;;;;;;;4.40;99.90;;;;;;5104791;28;20210;-69
2024/01/02 07:11:00;;;;;;;;;;;4.40;99.90;;;;;;5104608;28;19927;-69
2024/01/02 07:13:26;;;;;;;;;;;4.40;99.90;;;;;;5104486;28;19927;-69
2024/01/02 07:15:54;;;;;;;;;;;4.40;99.90;;;;;;5104808;28;20192;-69
2024/01/02 07:18:21;;;;;;;;;;;4.40;99.90;;;;;;5104670;28;19951;-69
2024/01/02 07:20:47;;;;;;;;;;;4.40;99.90;;;;;;5105257;28;19926;-68
2024/01/02 07:23:18;;;;;;;;;;;4.40;99.90;;;;;;5103583;28;20757;-69
2024/01/02 07:25:44;;;;;;;;;;;4.40;99.90;;;;;;5104678;28;20233;-69
2024/01/02 07:28:11;;;;;;;;;;;4.40;99.90;;;;;;5104570;28;19926;-69
2024/01/02 07:30:38;;;;;;;;;;;4.50;99.90;;;;;;5104902;28;19920;-69
2024/01/02 07:33:06;;;;;;;;;;;4.50;99.90;;;;;;5103287;28;20193;-69
2024/01/02 07:35:32;;;;;;;;;;;4.60;99.90;;;;;;5101004;28;19987;-69
2024/01/02 07:37:59;;;;;;;;;;;4.60;99.90;;;;;;5102296;28;19947;-69
2024/01/02 07:40:26;;;;;;;;;;;4.60;99.90;;;;;;5106002;28;21383;-70
2024/01/02 07:42:52;;;;;;;;;;;4.60;99.90;;;;;;5104218;28;19998;-69
2024/01/02 07:45:19;;;;;;;;;;;4.60;99.90;;;;;;5103293;28;19920;-70
2024/01/02 07:47:45;;;;;;;;;;;4.70;99.90;;;;;;5107043;28;19986;-69
2024/01/02 07:50:14;;;;;;;;;;;4.70;99.90;;;;;;5103248;28;19991;-69
2024/01/02 07:52:40;;;;;;;;;;;4.70;99.90;;;;;;5108995;28;20403;-69
2024/01/02 07:55:09;;;;;;;;;;;4.70;99.90;;;;;;5097927;28;19951;-69
2024/01/02 07:57:36;;;;;;;;;;;4.70;99.90;;;;;;5097753;28;19951;-70
2024/01/02 08:00:03;;;;;;;;;;;4.70;99.90;;;;;;5096470;28;19979;-69
2024/01/02 08:02:30;;;;;;;;;;;4.70;99.90;;;;;;5097370;28;20141;-70
2024/01/02 08:04:56;;;;;;;;;;;4.80;99.90;;;;;;5098865;28;19984;-70
2024/01/02 08:07:25;;;;;;;;;;;4.80;99.90;;;;;;5105218;28;19920;-70
2024/01/02 08:09:51;;;;;;;;;;;4.80;99.90;;;;;;5105269;28;19951;-69
2024/01/02 08:12:18;;;;;;;;;;;4.90;99.90;;;;;;5101364;28;19920;-69
2024/01/02 08:14:45;;;;;;;;;;;4.90;99.90;;;;;;5100117;28;19921;-70
2024/01/02 08:17:12;;;;;;;;;;;4.90;99.90;;;;;;5112383;28;19987;-69
2024/01/02 08:19:38;;;;;;;;;;;4.90;99.90;;;;;;5098785;28;19987;-70
2024/01/02 08:22:05;;;;;;;;;;;5.00;99.90;;;;;;5105111;28;19934;-70
2024/01/02 08:24:33;;;;;;;;;;;5.00;99.90;;;;;;5104009;28;19920;-69
2024/01/02 08:27:00;;;;;;;;;;;5.00;99.90;;;;;;5109882;28;20166;-69
2024/01/02 08:29:28;;;;;;;;;;;5.10;99.90;;;;;;5103281;28;19991;-70
2024/01/02 08:31:54;;;;;;;;;;;5.10;99.90;;;;;;5103541;28;19952;-69
2024/01/02 08:34:21;;;;;;;;;;;5.20;99.90;;;;;;5101154;28;19919;-70
2024/01/02 08:36:48;;;;;;;;;;;5.20;99.90;;;;;;5101757;28;19948;-70
2024/01/02 08:39:14;;;;;;;;;;;5.30;99.90;;;;;;5106183;28;19958;-70
2024/01/02 08:41:42;;;;;;;;;;;5.30;99.90;;;;;;5108987;28;19920;-70
2024/01/02 08:44:09;;;;;;;;;;;5.40;99.90;;;;;;5102649;28;20277;-70
2024/01/02 08:46:36;;;;;;;;;;;5.40;99.90;;;;;;5106386;28;19926;-71
2024/01/02 08:49:03;;;;;;;;;;;5.50;99.90;;;;;;5102552;28;19920;-71
2024/01/02 08:51:30;;;;;;;;;;;5.60;99.90;;;;;;5103889;28;19987;-71
2024/01/02 08:53:57;;;;;;;;;;;5.60;99.90;;;;;;5103685;28;19927;-70
2024/01/02 08:56:24;;;;;;;;;;;5.70;99.90;;;;;;5095910;28;20341;-70
2024/01/02 08:58:52;;;;;;;;;;;5.80;99.90;;;;;;5097722;28;19947;-70
2024/01/02 09:01:18;;;;;;;;;;;5.80;99.90;;;;;;5102708;28;19943;-71
2024/01/02 09:03:45;;;;;;;;;;;5.90;99.90;;;;;;5101681;28;19995;-70
2024/01/02 09:06:13;;;;;;;;;;;6.00;99.90;;;;;;5103987;28;19987;-70
2024/01/02 09:08:40;;;;;;;;;;;6.00;99.90;;;;;;5102515;28;19920;-69
2024/01/02 09:11:10;;;;;;;;;;;6.10;99.90;;;;;;5105606;28;19958;-70
2024/01/02 09:13:37;;;;;;;;;;;6.10;99.90;;;;;;5102215;28;19920;-69
2024/01/02 09:16:05;;;;;;;;;;;6.20;99.90;;;;;;5102321;28;19987;-68
2024/01/02 09:18:32;;;;;;;;;;;6.20;99.90;;;;;;5098234;28;19991;-68
2024/01/02 09:20:58;;;;;;;;;;;6.20;99.90;;;;;;5104091;28;19983;-69
2024/01/02 09:23:25;;;;;;;;;;;6.30;99.90;;;;;;5104593;28;19920;-69
2024/01/02 09:25:52;;;;;;;;;;;6.30;99.90;;;;;;5109719;28;19944;-71
2024/01/02 09:28:21;;;;;;;;;;;6.40;99.90;;;;;;5102254;28;20206;-70
2024/01/02 09:30:48;;;;;;;;;;;6.40;99.90;;;;;;5109511;28;19947;-70
2024/01/02 09:33:17;;;;;;;;;;;6.40;99.90;;;;;;5106396;28;19987;-70
2024/01/02 09:35:44;;;;;;;;;;;6.50;99.90;;;;;;5106082;28;20260;-72
2024/01/02 09:38:11;;;;;;;;;;;6.50;99.90;;;;;;5106955;28;19955;-70
2024/01/02 09:40:47;;;;;;;;;;;6.60;99.90;;;;;;5106316;28;19942;-70
2024/01/02 09:43:18;;;;;;;;;;;6.60;99.90;;;;;;5106683;28;19982;-70
2024/01/02 09:45:48;;;;;;;;;;;6.70;99.90;;;;;;5106772;28;20334;-70
2024/01/02 09:48:24;;;;;;;;;;;6.70;99.90;;;;;;5107148;28;19966;-70
2024/01/02 09:50:56;;;;;;;;;;;6.80;99.90;;;;;;5106995;28;19920;-70
2024/01/02 09:53:41;;;;;;;;;;;6.80;99.90;;;;;;5106273;28;19920;-70
2024/01/02 09:56:11;;;;;;;;;;;6.80;99.90;;;;;;5105771;28;20214;-71
2024/01/02 09:58:42;;;;;;;;;;;6.90;99.90;;;;;;5104479;28;20202;-70
2024/01/02 10:01:13;;;;;;;;;;;6.90;99.90;;;;;;5100461;28;19927;-70
2024/01/02 10:03:53;;;;;;;;;;;7.00;99.90;;;;;;5105505;28;20252;-70
2024/01/02 10:06:28;;;;;;;;;;;7.00;99.90;;;;;;5106601;28;19983;-70
2024/01/02 10:09:09;;;;;;;;;;;7.10;99.90;;;;;;5105720;28;19928;-69
2024/01/02 10:11:43;;;;;;;;;;;7.20;99.90;;;;;;5102007;28;20095;-71
2024/01/02 10:14:11;;;;;;;;;;;7.20;99.90;;;;;;5105916;28;20156;-68
2024/01/02 10:16:39;;;;;;;;;;;7.20;99.90;;;;;;5114206;28;20225;-69
2024/01/02 10:19:15;;;;;;;;;;;7.20;99.90;;;;;;5106011;28;19966;-69
2024/01/02 10:21:43;;;;;;;;;;;7.30;99.90;;;;;;5106651;28;19920;-69
2024/01/02 10:24:16;;;;;;;;;;;7.30;99.90;;;;;;5106680;28;19920;-69
2024/01/02 10:26:50;;;;;;;;;;;7.30;99.90;;;;;;5107262;28;19926;-70
2024/01/02 10:29:24;;;;;;;;;;;7.40;99.90;;;;;;5100124;28;19947;-69
2024/01/02 10:31:56;;;;;;;;;;;7.50;99.90;;;;;;5106138;28;20144;-69
2024/01/02 10:34:27;;;;;;;;;;;7.40;99.90;;;;;;5105121;28;19974;-70
2024/01/02 10:36:57;;;;;;;;;;;7.40;99.90;;;;;;5108076;28;19920;-69
2024/01/02 10:39:28;;;;;;;;;;;7.40;99.90;;;;;;5108393;28;19920;-69
2024/01/02 10:41:58;;;;;;;;;;;7.40;99.90;;;;;;5110252;28;20025;-69
2024/01/02 10:44:31;;;;;;;;;;;7.40;99.90;;;;;;5107166;28;19963;-69
2024/01/02 10:47:00;;;;;;;;;;;7.40;99.90;;;;;;5112811;28;19951;-70
2024/01/02 10:49:31;;;;;;;;;;;7.50;99.90;;;;;;5111366;28;19955;-70
2024/01/02 10:51:59;;;;;;;;;;;7.50;99.90;;;;;;5096769;28;19952;-70
2024/01/02 10:54:34;;;;;;;;;;;7.50;99.90;;;;;;5104518;28;19948;-70
2024/01/02 10:57:03;;;;;;;;;;;7.50;99.90;;;;;;5103573;28;19920;-70
2024/01/02 10:59:37;;;;;;;;;;;7.60;99.90;;;;;;5107909;28;19991;-70
2024/01/02 11:02:07;;;;;;;;;;;7.60;99.90;;;;;;5098236;28;19983;-70
2024/01/02 11:04:39;;;;;;;;;;;7.60;99.90;;;;;;5103972;28;19956;-69
2024/01/02 11:07:06;;;;;;;;;;;7.60;99.90;;;;;;5104505;28;19979;-69
2024/01/02 11:09:37;;;;;;;;;;;7.70;99.90;;;;;;5105063;28;19966;-70
2024/01/02 11:12:06;;;;;;;;;;;7.70;99.90;;;;;;5108389;28;19963;-70
2024/01/02 11:14:34;;;;;;;;;;;7.80;99.90;;;;;;5103511;28;19975;-70
2024/01/02 11:17:02;;;;;;;;;;;7.80;99.90;;;;;;5098000;28;19987;-70
2024/01/02 11:19:32;;;;;;;;;;;7.80;99.90;;;;;;5105653;28;20174;-71
2024/01/02 11:22:06;;;;;;;;;;;7.90;99.90;;;;;;5097591;28;20234;-70
2024/01/02 11:24:33;;;;;;;;;;;7.90;99.90;;;;;;5107564;28;19955;-70
2024/01/02 11:27:03;;;;;;;;;;;8.00;99.90;;;;;;5098421;28;19983;-70
2024/01/02 11:29:31;;;;;;;;;;;8.00;99.90;;;;;;5111570;28;19920;-70
2024/01/02 11:31:59;;;;;;;;;;;8.00;99.90;;;;;;5106562;28;19963;-71
2024/01/02 11:34:36;;;;;;;;;;;8.10;99.90;;;;;;5103306;28;19920;-70
2024/01/02 11:37:10;;;;;;;;;;;8.10;99.90;;;;;;5104276;28;19920;-70
2024/01/02 11:39:38;;;;;;;;;;;8.10;99.90;;;;;;5102828;28;19947;-71
2024/01/02 11:42:08;;;;;;;;;;;8.20;99.90;;;;;;5104397;28;19957;-70
2024/01/02 11:44:40;;;;;;;;;;;8.20;99.90;;;;;;5104645;28;19973;-71
2024/01/02 11:47:14;;;;;;;;;;;8.20;99.90;;;;;;5102943;28;19955;-71
2024/01/02 11:49:44;;;;;;;;;;;8.30;99.90;;;;;;5105479;28;19944;-71
2024/01/02 11:52:16;;;;;;;;;;;8.30;99.90;;;;;;5104801;28;19920;-71
2024/01/02 11:54:47;;;;;;;;;;;8.30;99.90;;;;;;5103445;28;19960;-70
2024/01/02 11:57:19;;;;;;;;;;;8.30;99.90;;;;;;5105272;28;19990;-70
2024/01/02 11:59:51;;;;;;;;;;;8.20;99.90;;;;;;5104070;28;19958;-71
2024/01/02 12:02:24;;;;;;;;;;;8.20;99.90;;;;;;5103076;28;19942;-69
2024/01/02 12:04:57;;;;;;;;;;;8.20;99.90;;;;;;5102008;28;19935;-72
2024/01/02 12:07:27;;;;;;;;;;;8.20;99.90;;;;;;5101097;28;19987;-70
2024/01/02 12:09:54;;;;;;;;;;;8.20;99.90;;;;;;5103714;28;20225;-70
2024/01/02 12:12:31;;;;;;;;;;;8.20;99.90;;;;;;5103779;28;20261;-71
2024/01/02 12:15:03;;;;;;;;;;;8.10;99.90;;;;;;5106749;28;19927;-70
2024/01/02 12:17:33;;;;;;;;;;;8.10;99.90;;;;;;5100229;28;19920;-71
2024/01/02 12:20:03;;;;;;;;;;;8.20;99.90;;;;;;5103412;28;19921;-70
2024/01/02 12:22:32;;;;;;;;;;;8.20;99.90;;;;;;5106741;28;19927;-70
2024/01/02 12:25:00;;;;;;;;;;;8.20;99.90;;;;;;5109343;28;19920;-71
2024/01/02 12:27:26;;;;;;;;;;;8.20;99.90;;;;;;5104347;28;19951;-70
2024/01/02 12:29:57;;;;;;;;;;;8.20;99.90;;;;;;5103667;28;20334;-71
2024/01/02 12:32:29;;;;;;;;;;;8.20;99.90;;;;;;5096333;28;19921;-70
2024/01/02 12:35:02;;;;;;;;;;;8.20;99.90;;;;;;5102808;28;19983;-69
2024/01/02 12:37:35;;;;;;;;;;;8.30;99.90;;;;;;5106731;28;19957;-70
2024/01/02 12:40:06;;;;;;;;;;;8.30;99.90;;;;;;5095866;28;19971;-70
2024/01/02 12:42:37;;;;;;;;;;;8.30;99.90;;;;;;5102912;28;19920;-70
2024/01/02 12:45:05;;;;;;;;;;;8.30;99.90;;;;;;5107916;28;19951;-69
2024/01/02 12:47:33;;;;;;;;;;;8.30;99.90;;;;;;5104791;28;19924;-70
2024/01/02 12:50:02;;;;;;;;;;;8.30;99.90;;;;;;5096081;28;19927;-71
2024/01/02 12:52:32;;;;;;;;;;;8.30;99.90;;;;;;5103271;28;19920;-75
2024/01/02 12:55:00;;;;;;;;;;;8.30;99.90;;;;;;5101588;28;19983;-71
2024/01/02 12:57:32;;;;;;;;;;;8.30;99.90;;;;;;5095255;28;19921;-70
2024/01/02 12:59:59;;;;;;;;;;;8.30;99.90;;;;;;5095898;28;19920;-74
2024/01/02 13:02:27;;;;;;;;;;;8.30;99.90;;;;;;5103688;28;19959;-70
2024/01/02 13:04:54;;;;;;;;;;;8.30;99.90;;;;;;5103145;28;19959;-70
2024/01/02 13:07:20;;;;;;;;;;;8.20;99.90;;;;;;5103588;28;19983;-71
2024/01/02 13:09:47;;;;;;;;;;;8.30;99.90;;;;;;5106620;28;19962;-70
2024/01/02 13:12:15;;;;;;;;;;;8.30;99.90;;;;;;5107754;28;19955;-70
2024/01/02 13:14:45;;;;;;;;;;;8.30;99.90;;;;;;5106830;28;19920;-71
2024/01/02 13:17:14;;;;;;;;;;;8.20;99.90;;;;;;5099116;28;19982;-71
2024/01/02 13:19:42;;;;;;;;;;;8.20;99.90;;;;;;5107471;28;19983;-70
2024/01/02 13:22:09;;;;;;;;;;;8.20;99.90;;;;;;5107511;28;19964;-71
2024/01/02 13:24:44;;;;;;;;;;;8.20;99.90;;;;;;5107010;28;20158;-71
2024/01/02 13:27:13;;;;;;;;;;;8.20;99.90;;;;;;5107290;28;19979;-71
2024/01/02 13:29:45;;;;;;;;;;;8.20;99.90;;;;;;5106766;28;19987;-71
2024/01/02 13:32:13;;;;;;;;;;;8.20;99.90;;;;;;5107440;28;19962;-70
2024/01/02 13:34:40;;;;;;;;;;;8.10;99.90;;;;;;5106865;28;19955;-70
2024/01/02 13:37:07;;;;;;;;;;;8.10;99.90;;;;;;5107488;28;19955;-70
2024/01/02 13:39:34;;;;;;;;;;;8.10;99.90;;;;;;5106715;28;19959;-70
2024/01/02 13:42:02;;;;;;;;;;;8.10;99.90;;;;;;5107151;28;19923;-71
2024/01/02 13:44:30;;;;;;;;;;;8.10;99.90;;;;;;5106637;28;19920;-71
2024/01/02 13:46:56;;;;;;;;;;;8.10;99.90;;;;;;5107018;28;19958;-71
2024/01/02 13:49:43;;;;;;;;;;;8.10;99.90;;;;;;5106845;28;20156;-72
2024/01/02 13:52:10;;;;;;;;;;;8.20;99.90;;;;;;5097722;28;20206;-71
2024/01/02 13:54:41;;;;;;;;;;;8.10;99.90;;;;;;5105155;28;19955;-70
2024/01/02 13:57:08;;;;;;;;;;;8.20;99.90;;;;;;5106408;28;19978;-70
2024/01/02 13:59:34;;;;;;;;;;;8.10;99.90;;;;;;5104961;28;20209;-71
2024/01/02 14:02:10;;;;;;;;;;;8.20;99.90;;;;;;5106257;28;19951;-70
2024/01/02 14:04:38;;;;;;;;;;;8.20;99.90;;;;;;5104919;28;19959;-71
2024/01/02 14:07:05;;;;;;;;;;;8.20;99.90;;;;;;5105865;28;19920;-70
2024/01/02 14:09:31;;;;;;;;;;;8.20;99.90;;;;;;5106341;28;20416;-71
2024/01/02 14:11:59;;;;;;;;;;;8.20;99.90;;;;;;5105508;28;19952;-71
2024/01/02 14:14:27;;;;;;;;;;;8.20;99.90;;;;;;5104977;28;19939;-71
2024/01/02 14:16:55;;;;;;;;;;;8.20;99.90;;;;;;5105246;28;19924;-70
2024/01/02 14:19:23;;;;;;;;;;;8.20;99.90;;;;;;5105545;28;19951;-71
2024/01/02 14:21:53;;;;;;;;;;;8.20;99.90;;;;;;5104917;28;21844;-70
2024/01/02 14:24:24;;;;;;;;;;;8.20;99.90;;;;;;5105524;28;19958;-71
2024/01/02 14:26:57;;;;;;;;;;;8.20;99.90;;;;;;5100398;28;19975;-70
2024/01/02 14:29:27;;;;;;;;;;;8.20;99.90;;;;;;5105431;28;20139;-71
2024/01/02 14:31:58;;;;;;;;;;;8.20;99.90;;;;;;5105959;28;19921;-70
2024/01/02 14:34:30;;;;;;;;;;;8.30;99.90;;;;;;5104929;28;19978;-71
2024/01/02 14:37:02;;;;;;;;;;;8.30;99.90;;;;;;5106466;28;19939;-70